Time;durP1;ratioP1;P1;durP2;ratioP2;P2;SDS_P1;SDS_P2;PMS_P1;PMS_P2;Temp;Humidity;BMP_temperature;BMP_pressure;BME280_temperature;BME280_humidity;BME280_pressure;Samples;Min_cycle;Max_cycle;Signal;HPM_P1;HPM_P2
2023/03/30 00:01:10;;;;;;;0.90;0.70;;;;;;;;;;5099345;27;20425;-69
2023/03/30 00:03:37;;;;;;;0.50;0.50;;;;;;;;;;5091834;28;20856;-69
2023/03/30 00:06:06;;;;;;;0.55;0.55;;;;;;;;;;5090726;28;20596;-69
2023/03/30 00:08:33;;;;;;;0.50;0.40;;;;;;;;;;5091935;28;20524;-69
2023/03/30 00:11:08;;;;;;;0.43;0.43;;;;;;;;;;5090327;28;20516;-69
2023/03/30 00:13:36;;;;;;;0.50;0.50;;;;;;;;;;5090851;28;20483;-69
2023/03/30 00:16:04;;;;;;;3.30;0.90;;;;;;;;;;5091116;28;20452;-69
2023/03/30 00:18:33;;;;;;;1.48;0.98;;;;;;;;;;5102681;27;20429;-70
2023/03/30 00:21:03;;;;;;;0.50;0.50;;;;;;;;;;5120739;27;20506;-69
2023/03/30 00:23:37;;;;;;;5.50;0.70;;;;;;;;;;5133246;27;20897;-69
2023/03/30 00:26:04;;;;;;;0.20;0.20;;;;;;;;;;5111721;27;20432;-69
2023/03/30 00:28:31;;;;;;;0.80;0.40;;;;;;;;;;5112489;28;20426;-69
2023/03/30 00:31:06;;;;;;;0.43;0.43;;;;;;;;;;5112827;28;20436;-69
2023/03/30 00:33:33;;;;;;;0.50;0.50;;;;;;;;;;5111824;28;20424;-69
2023/03/30 00:36:12;;;;;;;1.30;0.82;;;;;;;;;;5104176;27;20824;-69
2023/03/30 00:38:40;;;;;;;1.10;0.43;;;;;;;;;;5092198;28;20426;-69
2023/03/30 00:41:08;;;;;;;0.32;0.32;;;;;;;;;;5091746;28;20425;-69
2023/03/30 00:43:38;;;;;;;1.27;0.70;;;;;;;;;;5111335;28;20424;-69
2023/03/30 00:46:08;;;;;;;0.55;0.55;;;;;;;;;;5112005;28;20424;-69
2023/03/30 00:48:37;;;;;;;0.70;0.70;;;;;;;;;;5109688;28;20496;-69
2023/03/30 00:51:08;;;;;;;0.47;0.47;;;;;;;;;;5106808;28;20429;-69
2023/03/30 00:53:38;;;;;;;0.30;0.30;;;;;;;;;;5092044;28;20516;-69
2023/03/30 00:56:07;;;;;;;0.60;0.60;;;;;;;;;;5090419;28;20821;-69
2023/03/30 00:58:35;;;;;;;0.80;0.60;;;;;;;;;;5102256;28;20427;-69
2023/03/30 01:01:04;;;;;;;2.60;0.93;;;;;;;;;;5111041;28;20511;-69
2023/03/30 01:03:36;;;;;;;0.73;0.73;;;;;;;;;;5105836;28;20483;-69
2023/03/30 01:06:06;;;;;;;0.55;0.55;;;;;;;;;;5091517;28;20436;-70
2023/03/30 01:08:34;;;;;;;0.22;0.22;;;;;;;;;;5091531;28;20509;-70
2023/03/30 01:11:02;;;;;;;2.50;0.70;;;;;;;;;;5091669;28;20853;-70
2023/03/30 01:13:30;;;;;;;0.40;0.40;;;;;;;;;;5091788;28;20421;-70
2023/03/30 01:16:17;;;;;;;0.68;0.55;;;;;;;;;;5091244;28;20433;-70
2023/03/30 01:19:03;;;;;;;0.28;0.28;;;;;;;;;;5091603;28;20428;-70
2023/03/30 01:21:49;;;;;;;0.75;0.70;;;;;;;;;;5090256;28;20528;-70
2023/03/30 01:24:48;;;;;;;1.85;0.68;;;;;;;;;;5091316;28;20421;-70
2023/03/30 01:27:24;;;;;;;0.50;0.50;;;;;;;;;;5090244;28;20471;-70
2023/03/30 01:29:57;;;;;;;0.40;0.40;;;;;;;;;;5091356;28;20504;-70
2023/03/30 01:32:45;;;;;;;0.50;0.50;;;;;;;;;;5091230;28;21067;-70
2023/03/30 01:35:12;;;;;;;0.50;0.50;;;;;;;;;;5090677;28;20840;-70
2023/03/30 01:37:46;;;;;;;0.60;0.60;;;;;;;;;;5091034;28;20429;-70
2023/03/30 01:40:15;;;;;;;1.40;1.00;;;;;;;;;;5091248;28;20422;-70
2023/03/30 01:42:53;;;;;;;0.90;0.60;;;;;;;;;;5091067;28;20517;-70
2023/03/30 01:45:42;;;;;;;1.20;0.60;;;;;;;;;;5093980;28;20424;-70
2023/03/30 01:48:18;;;;;;;1.10;0.73;;;;;;;;;;5110923;28;20895;-70
2023/03/30 01:50:50;;;;;;;1.30;0.70;;;;;;;;;;5097791;28;20413;-70
2023/03/30 01:53:25;;;;;;;0.80;0.80;;;;;;;;;;5090935;28;20418;-70
2023/03/30 01:55:55;;;;;;;0.50;0.50;;;;;;;;;;5089588;28;20433;-70
2023/03/30 01:58:28;;;;;;;0.50;0.50;;;;;;;;;;5090641;28;20426;-70
2023/03/30 02:00:56;;;;;;;0.50;0.50;;;;;;;;;;5091461;28;20429;-70
2023/03/30 02:03:31;;;;;;;0.50;0.50;;;;;;;;;;5111169;28;20423;-70
2023/03/30 02:06:04;;;;;;;0.90;0.90;;;;;;;;;;5109867;28;20436;-70
2023/03/30 02:08:34;;;;;;;2.20;0.70;;;;;;;;;;5120508;27;20454;-70
2023/03/30 02:11:01;;;;;;;0.65;0.65;;;;;;;;;;5123984;27;20485;-70
2023/03/30 02:13:34;;;;;;;0.77;0.65;;;;;;;;;;5092742;27;20422;-70
2023/03/30 02:16:03;;;;;;;0.30;0.30;;;;;;;;;;5089718;28;20433;-70
2023/03/30 02:18:30;;;;;;;1.00;0.40;;;;;;;;;;5090339;28;20785;-70
2023/03/30 02:20:58;;;;;;;0.80;0.55;;;;;;;;;;5090433;28;20426;-70
2023/03/30 02:23:27;;;;;;;1.65;0.60;;;;;;;;;;5090237;28;20426;-70
2023/03/30 02:25:57;;;;;;;0.60;0.60;;;;;;;;;;5089677;28;20430;-70
2023/03/30 02:28:25;;;;;;;0.55;0.55;;;;;;;;;;5089773;28;20425;-70
2023/03/30 02:30:52;;;;;;;1.48;0.57;;;;;;;;;;5090216;28;20425;-70
2023/03/30 02:33:24;;;;;;;0.50;0.50;;;;;;;;;;5090152;28;20964;-70
2023/03/30 02:36:02;;;;;;;0.68;0.60;;;;;;;;;;5089398;28;20772;-70
2023/03/30 02:38:48;;;;;;;1.23;0.68;;;;;;;;;;5090110;28;20475;-70
2023/03/30 02:41:30;;;;;;;0.40;0.40;;;;;;;;;;5090259;28;20516;-70
2023/03/30 02:44:06;;;;;;;3.20;0.70;;;;;;;;;;5088313;28;20460;-70
2023/03/30 02:46:52;;;;;;;0.60;0.45;;;;;;;;;;5090055;28;20789;-70
2023/03/30 02:49:24;;;;;;;0.40;0.40;;;;;;;;;;5089822;28;20593;-70
2023/03/30 02:52:10;;;;;;;1.70;1.40;;;;;;;;;;5090103;28;20425;-70
2023/03/30 02:54:47;;;;;;;0.70;0.70;;;;;;;;;;5089130;28;20422;-70
2023/03/30 02:57:35;;;;;;;2.13;0.85;;;;;;;;;;5089208;28;20797;-70
2023/03/30 03:00:16;;;;;;;1.83;1.27;;;;;;;;;;5089557;28;20425;-70
2023/03/30 03:02:59;;;;;;;1.30;1.15;;;;;;;;;;5088883;28;20786;-70
2023/03/30 03:05:31;;;;;;;0.65;0.65;;;;;;;;;;5089675;28;20425;-70
2023/03/30 03:07:58;;;;;;;0.73;0.73;;;;;;;;;;5089767;28;20429;-70
2023/03/30 03:10:25;;;;;;;0.82;0.82;;;;;;;;;;5088188;28;22178;-70
2023/03/30 03:12:56;;;;;;;0.50;0.50;;;;;;;;;;5089722;28;20512;-70
2023/03/30 03:15:23;;;;;;;0.52;0.52;;;;;;;;;;5089064;28;20429;-72
2023/03/30 03:17:50;;;;;;;0.30;0.30;;;;;;;;;;5089821;28;20421;-70
2023/03/30 03:20:17;;;;;;;0.90;0.75;;;;;;;;;;5089835;28;20422;-70
2023/03/30 03:22:44;;;;;;;2.43;1.10;;;;;;;;;;5089790;28;20508;-70
2023/03/30 03:25:11;;;;;;;0.55;0.47;;;;;;;;;;5104994;28;20525;-70
2023/03/30 03:27:39;;;;;;;0.30;0.30;;;;;;;;;;5110108;28;20470;-69
2023/03/30 03:30:06;;;;;;;0.80;0.77;;;;;;;;;;5095727;28;20456;-70
2023/03/30 03:32:35;;;;;;;0.77;0.50;;;;;;;;;;5089961;28;20491;-70
2023/03/30 03:35:03;;;;;;;0.30;0.30;;;;;;;;;;5090581;28;20425;-70
2023/03/30 03:37:30;;;;;;;0.90;0.60;;;;;;;;;;5109660;28;20444;-70
2023/03/30 03:39:57;;;;;;;0.40;0.40;;;;;;;;;;5109957;28;20452;-70
2023/03/30 03:42:30;;;;;;;0.60;0.60;;;;;;;;;;5109920;28;20427;-70
2023/03/30 03:44:57;;;;;;;1.30;1.20;;;;;;;;;;5109547;28;20412;-70
2023/03/30 03:47:24;;;;;;;2.17;0.60;;;;;;;;;;5099303;28;20413;-70
2023/03/30 03:49:51;;;;;;;0.85;0.60;;;;;;;;;;5089525;28;20456;-70
2023/03/30 03:52:19;;;;;;;0.40;0.40;;;;;;;;;;5089515;28;20425;-70
2023/03/30 03:54:46;;;;;;;1.40;0.77;;;;;;;;;;5088878;28;20897;-70
2023/03/30 03:57:13;;;;;;;1.10;0.70;;;;;;;;;;5089403;28;20500;-70
2023/03/30 03:59:40;;;;;;;0.38;0.38;;;;;;;;;;5089560;28;20449;-70
2023/03/30 04:02:07;;;;;;;0.80;0.77;;;;;;;;;;5087618;28;20429;-70
2023/03/30 04:04:37;;;;;;;0.57;0.57;;;;;;;;;;5088844;28;20705;-70
2023/03/30 04:07:07;;;;;;;0.60;0.60;;;;;;;;;;5086731;28;20434;-70
2023/03/30 04:09:34;;;;;;;0.80;0.80;;;;;;;;;;5092099;28;20463;-70
2023/03/30 04:12:01;;;;;;;0.40;0.40;;;;;;;;;;5091624;28;20429;-70
2023/03/30 04:14:28;;;;;;;3.13;0.77;;;;;;;;;;5092474;28;20433;-70
2023/03/30 04:16:58;;;;;;;0.63;0.50;;;;;;;;;;5092937;28;20426;-70
2023/03/30 04:19:26;;;;;;;0.80;0.50;;;;;;;;;;5092422;28;20513;-70
2023/03/30 04:21:54;;;;;;;0.60;0.40;;;;;;;;;;5113089;28;20426;-70
2023/03/30 04:24:21;;;;;;;0.63;0.63;;;;;;;;;;5111139;28;20454;-70
2023/03/30 04:26:48;;;;;;;1.60;0.98;;;;;;;;;;5099354;28;20912;-70
2023/03/30 04:29:22;;;;;;;1.70;0.65;;;;;;;;;;5093184;28;20434;-70
2023/03/30 04:31:52;;;;;;;2.35;0.52;;;;;;;;;;5092479;28;20421;-70
2023/03/30 04:34:20;;;;;;;1.95;0.80;;;;;;;;;;5092242;28;20425;-70
2023/03/30 04:36:48;;;;;;;0.80;0.60;;;;;;;;;;5092043;28;20780;-70
2023/03/30 04:39:16;;;;;;;0.77;0.60;;;;;;;;;;5092319;28;20424;-70
2023/03/30 04:41:44;;;;;;;0.80;0.30;;;;;;;;;;5092304;28;20784;-70
2023/03/30 04:44:12;;;;;;;0.55;0.50;;;;;;;;;;5091763;28;20430;-70
2023/03/30 04:46:39;;;;;;;0.32;0.32;;;;;;;;;;5090875;28;20436;-70
2023/03/30 04:49:08;;;;;;;0.75;0.70;;;;;;;;;;5091658;28;20435;-70
2023/03/30 04:51:36;;;;;;;0.60;0.60;;;;;;;;;;5091994;28;20426;-70
2023/03/30 04:54:03;;;;;;;0.70;0.45;;;;;;;;;;5090124;28;20433;-70
2023/03/30 04:56:33;;;;;;;0.43;0.43;;;;;;;;;;5091997;28;21002;-70
2023/03/30 04:59:01;;;;;;;0.40;0.40;;;;;;;;;;5091385;28;20846;-70
2023/03/30 05:01:28;;;;;;;1.90;0.57;;;;;;;;;;5095925;28;20428;-70
2023/03/30 05:03:57;;;;;;;1.48;0.30;;;;;;;;;;5091144;28;20511;-70
2023/03/30 05:06:26;;;;;;;0.73;0.73;;;;;;;;;;5091722;28;21037;-69
2023/03/30 05:08:56;;;;;;;1.30;0.50;;;;;;;;;;5091691;28;20430;-69
2023/03/30 05:11:30;;;;;;;0.90;0.73;;;;;;;;;;5091447;28;20928;-69
2023/03/30 05:13:57;;;;;;;0.80;0.80;;;;;;;;;;5091288;28;20429;-69
2023/03/30 05:16:24;;;;;;;0.30;0.30;;;;;;;;;;5091538;28;20430;-69
2023/03/30 05:18:52;;;;;;;3.50;0.65;;;;;;;;;;5091725;28;20422;-69
2023/03/30 05:21:21;;;;;;;0.43;0.43;;;;;;;;;;5091094;28;20501;-69
2023/03/30 05:23:48;;;;;;;0.60;0.60;;;;;;;;;;5090956;28;20424;-69
2023/03/30 05:26:15;;;;;;;3.60;0.50;;;;;;;;;;5091581;28;20487;-69
2023/03/30 05:28:43;;;;;;;0.80;0.35;;;;;;;;;;5091441;28;20429;-69
2023/03/30 05:31:10;;;;;;;1.10;0.40;;;;;;;;;;5090844;28;20891;-69
2023/03/30 05:33:39;;;;;;;0.30;0.30;;;;;;;;;;5091121;28;20429;-69
2023/03/30 05:36:15;;;;;;;0.37;0.37;;;;;;;;;;5090449;28;20432;-69
2023/03/30 05:38:42;;;;;;;1.80;0.57;;;;;;;;;;5091201;28;20433;-69
2023/03/30 05:41:10;;;;;;;0.33;0.33;;;;;;;;;;5089988;28;20425;-68
2023/03/30 05:43:40;;;;;;;1.92;0.40;;;;;;;;;;5089709;28;21058;-68
2023/03/30 05:46:10;;;;;;;0.65;0.40;;;;;;;;;;5089891;28;20430;-68
2023/03/30 05:48:40;;;;;;;1.10;0.50;;;;;;;;;;5090704;28;20461;-68
2023/03/30 05:51:07;;;;;;;0.83;0.53;;;;;;;;;;5094443;28;20431;-68
2023/03/30 05:53:35;;;;;;;3.83;0.50;;;;;;;;;;5111326;28;20945;-68
2023/03/30 05:56:02;;;;;;;0.50;0.50;;;;;;;;;;5110584;28;20443;-68
2023/03/30 05:58:38;;;;;;;0.70;0.30;;;;;;;;;;5111504;28;21017;-68
2023/03/30 06:01:08;;;;;;;0.52;0.52;;;;;;;;;;5111298;28;20788;-68
2023/03/30 06:03:35;;;;;;;1.00;0.50;;;;;;;;;;5110208;28;20441;-68
2023/03/30 06:06:05;;;;;;;0.43;0.43;;;;;;;;;;5110829;28;20428;-68
2023/03/30 06:08:34;;;;;;;2.50;0.70;;;;;;;;;;5111100;28;20424;-67
2023/03/30 06:11:05;;;;;;;5.53;0.47;;;;;;;;;;5102393;28;20429;-67
2023/03/30 06:13:33;;;;;;;2.97;0.65;;;;;;;;;;5109733;28;20782;-67
2023/03/30 06:16:02;;;;;;;2.60;0.47;;;;;;;;;;5110558;28;20435;-67
2023/03/30 06:18:33;;;;;;;5.10;0.63;;;;;;;;;;5110890;28;20490;-67
2023/03/30 06:21:05;;;;;;;0.20;0.20;;;;;;;;;;5110522;28;20422;-67
2023/03/30 06:23:36;;;;;;;0.50;0.50;;;;;;;;;;5111058;28;20424;-67
2023/03/30 06:26:04;;;;;;;1.90;0.50;;;;;;;;;;5110399;28;20446;-67
2023/03/30 06:28:31;;;;;;;0.60;0.30;;;;;;;;;;5099345;28;20460;-67
2023/03/30 06:31:00;;;;;;;1.70;0.50;;;;;;;;;;5089763;28;20429;-67
2023/03/30 06:33:29;;;;;;;0.90;0.55;;;;;;;;;;5087458;28;20425;-67
2023/03/30 06:35:56;;;;;;;5.75;0.65;;;;;;;;;;5089849;28;20438;-67
2023/03/30 06:38:23;;;;;;;0.20;0.20;;;;;;;;;;5088930;28;20493;-67
2023/03/30 06:40:50;;;;;;;0.10;0.10;;;;;;;;;;5089063;28;20421;-67
2023/03/30 06:43:19;;;;;;;1.90;0.40;;;;;;;;;;5113792;27;20423;-67
2023/03/30 06:45:53;;;;;;;1.00;1.00;;;;;;;;;;5120677;27;20924;-67
2023/03/30 06:48:24;;;;;;;1.60;0.40;;;;;;;;;;5088413;28;20866;-67
2023/03/30 06:50:54;;;;;;;0.55;0.28;;;;;;;;;;5090042;28;20457;-67
2023/03/30 06:53:22;;;;;;;1.50;0.80;;;;;;;;;;5090017;28;20475;-67
2023/03/30 06:55:50;;;;;;;0.70;0.40;;;;;;;;;;5099324;28;20431;-67
2023/03/30 06:58:21;;;;;;;0.32;0.32;;;;;;;;;;5110528;28;20424;-66
2023/03/30 07:00:48;;;;;;;0.47;0.47;;;;;;;;;;5110127;28;21097;-66
2023/03/30 07:03:19;;;;;;;0.20;0.20;;;;;;;;;;5089303;28;20426;-66
2023/03/30 07:05:47;;;;;;;0.47;0.47;;;;;;;;;;5089507;28;20907;-67
2023/03/30 07:08:14;;;;;;;0.90;0.25;;;;;;;;;;5089794;28;20426;-67
2023/03/30 07:10:42;;;;;;;2.10;0.40;;;;;;;;;;5089054;28;20428;-67
2023/03/30 07:13:09;;;;;;;0.35;0.15;;;;;;;;;;5089482;28;20455;-66
2023/03/30 07:15:36;;;;;;;3.30;0.20;;;;;;;;;;5089051;28;20422;-67
2023/03/30 07:18:03;;;;;;;0.32;0.32;;;;;;;;;;5089806;28;20421;-66
2023/03/30 07:20:34;;;;;;;0.60;0.50;;;;;;;;;;5089823;28;20454;-67
2023/03/30 07:23:02;;;;;;;0.20;0.20;;;;;;;;;;5089747;28;20481;-66
2023/03/30 07:25:29;;;;;;;1.80;0.30;;;;;;;;;;5089232;28;20437;-67
2023/03/30 07:28:00;;;;;;;0.43;0.43;;;;;;;;;;5089950;28;20433;-66
2023/03/30 07:30:28;;;;;;;0.60;0.38;;;;;;;;;;5089140;28;20524;-66
2023/03/30 07:32:57;;;;;;;0.80;0.30;;;;;;;;;;5089767;28;20456;-66
2023/03/30 07:35:25;;;;;;;2.20;0.70;;;;;;;;;;5088650;28;20465;-66
2023/03/30 07:37:58;;;;;;;0.30;0.30;;;;;;;;;;5088304;28;20492;-71
2023/03/30 07:40:30;;;;;;;0.60;0.60;;;;;;;;;;5089865;28;20514;-64
2023/03/30 07:42:57;;;;;;;0.50;0.50;;;;;;;;;;5089721;28;20463;-64
2023/03/30 07:45:30;;;;;;;0.82;0.80;;;;;;;;;;5093087;28;21071;-64
2023/03/30 07:48:01;;;;;;;0.85;0.50;;;;;;;;;;5092273;28;20922;-64
2023/03/30 07:50:28;;;;;;;0.30;0.30;;;;;;;;;;5093198;28;20512;-64
2023/03/30 07:52:55;;;;;;;2.00;0.70;;;;;;;;;;5093407;28;20425;-64
2023/03/30 07:55:27;;;;;;;3.80;0.40;;;;;;;;;;5092808;28;20469;-64
2023/03/30 07:57:55;;;;;;;0.40;0.40;;;;;;;;;;5093432;28;20516;-64
2023/03/30 08:00:23;;;;;;;0.30;0.30;;;;;;;;;;5093427;28;20788;-65
2023/03/30 08:02:50;;;;;;;0.75;0.68;;;;;;;;;;5093035;28;20453;-65
2023/03/30 08:05:18;;;;;;;0.55;0.47;;;;;;;;;;5100414;28;20489;-65
2023/03/30 08:07:45;;;;;;;2.20;0.50;;;;;;;;;;5113478;28;21164;-65
2023/03/30 08:10:13;;;;;;;0.80;0.47;;;;;;;;;;5113056;28;20423;-67
2023/03/30 08:12:40;;;;;;;0.25;0.25;;;;;;;;;;5113286;28;20420;-71
2023/03/30 08:15:08;;;;;;;0.40;0.40;;;;;;;;;;5110594;28;20505;-65
2023/03/30 08:17:36;;;;;;;0.60;0.60;;;;;;;;;;5093357;28;20894;-65
2023/03/30 08:20:08;;;;;;;0.70;0.70;;;;;;;;;;5093222;28;20418;-65
2023/03/30 08:22:35;;;;;;;0.85;0.80;;;;;;;;;;5092218;28;20430;-65
2023/03/30 08:25:02;;;;;;;0.50;0.50;;;;;;;;;;5092610;28;20562;-65
2023/03/30 08:27:30;;;;;;;0.65;0.65;;;;;;;;;;5092649;28;20814;-67
2023/03/30 08:29:57;;;;;;;0.70;0.50;;;;;;;;;;5092058;28;20433;-64
2023/03/30 08:32:25;;;;;;;0.80;0.70;;;;;;;;;;5092455;28;20429;-65
2023/03/30 08:34:53;;;;;;;0.33;0.33;;;;;;;;;;5092132;28;20434;-64
2023/03/30 08:37:24;;;;;;;0.60;0.60;;;;;;;;;;5091325;28;20853;-65
2023/03/30 08:39:51;;;;;;;0.40;0.35;;;;;;;;;;5092324;28;20547;-65
2023/03/30 08:42:39;;;;;;;0.98;0.80;;;;;;;;;;5091902;28;21017;-64
2023/03/30 08:45:12;;;;;;;0.40;0.40;;;;;;;;;;5091906;28;20510;-64
2023/03/30 08:47:50;;;;;;;0.30;0.30;;;;;;;;;;5091800;28;20932;-64
2023/03/30 08:50:22;;;;;;;0.30;0.30;;;;;;;;;;5107973;28;20455;-66
2023/03/30 08:52:53;;;;;;;2.97;0.90;;;;;;;;;;5112748;28;20424;-65
2023/03/30 08:55:23;;;;;;;0.70;0.70;;;;;;;;;;5111398;28;20507;-65
2023/03/30 08:58:09;;;;;;;1.60;0.80;;;;;;;;;;5112283;28;20424;-65
2023/03/30 09:00:52;;;;;;;0.50;0.50;;;;;;;;;;5112494;28;20494;-66
2023/03/30 09:03:26;;;;;;;2.50;1.23;;;;;;;;;;5112292;28;20447;-66
2023/03/30 09:05:58;;;;;;;0.90;0.60;;;;;;;;;;5106458;28;20424;-66
2023/03/30 09:08:28;;;;;;;3.20;0.90;;;;;;;;;;5092388;28;20422;-66
2023/03/30 09:11:05;;;;;;;0.50;0.50;;;;;;;;;;5090575;28;20462;-66
2023/03/30 09:13:35;;;;;;;0.60;0.40;;;;;;;;;;5092470;28;20422;-66
2023/03/30 09:16:20;;;;;;;0.75;0.75;;;;;;;;;;5091427;28;20495;-66
2023/03/30 09:18:52;;;;;;;0.73;0.60;;;;;;;;;;5091814;28;20955;-66
2023/03/30 09:21:21;;;;;;;0.40;0.40;;;;;;;;;;5091028;28;20430;-66
2023/03/30 09:23:49;;;;;;;0.90;0.60;;;;;;;;;;5091001;28;21382;-66
2023/03/30 09:26:38;;;;;;;0.50;0.50;;;;;;;;;;5091785;28;21053;-66
2023/03/30 09:29:12;;;;;;;2.40;0.63;;;;;;;;;;5086398;28;20513;-66
2023/03/30 09:31:43;;;;;;;1.27;0.43;;;;;;;;;;5091670;28;20487;-66
2023/03/30 09:34:24;;;;;;;0.50;0.45;;;;;;;;;;5090972;28;20525;-66
2023/03/30 09:36:56;;;;;;;0.60;0.60;;;;;;;;;;5091330;28;20432;-66
2023/03/30 09:39:28;;;;;;;0.35;0.35;;;;;;;;;;5090308;28;20425;-66
2023/03/30 09:42:02;;;;;;;0.32;0.32;;;;;;;;;;5089901;28;20928;-66
2023/03/30 09:44:37;;;;;;;0.95;0.90;;;;;;;;;;5090840;28;20429;-66
2023/03/30 09:47:24;;;;;;;0.80;0.80;;;;;;;;;;5090876;28;20429;-66
2023/03/30 09:49:58;;;;;;;1.17;0.40;;;;;;;;;;5091365;28;20432;-66
2023/03/30 09:52:30;;;;;;;0.47;0.47;;;;;;;;;;5091120;28;20430;-66
2023/03/30 09:55:16;;;;;;;0.60;0.60;;;;;;;;;;5090588;28;20754;-66
2023/03/30 09:57:43;;;;;;;0.40;0.40;;;;;;;;;;5089031;28;20446;-66
2023/03/30 10:00:25;;;;;;;1.27;0.70;;;;;;;;;;5090921;28;20501;-66
2023/03/30 10:02:56;;;;;;;6.00;0.60;;;;;;;;;;5101637;28;20416;-66
2023/03/30 10:05:24;;;;;;;0.30;0.30;;;;;;;;;;5109496;28;20428;-66
2023/03/30 10:07:53;;;;;;;1.30;0.70;;;;;;;;;;5110433;28;20510;-66
2023/03/30 10:10:20;;;;;;;0.60;0.50;;;;;;;;;;5096231;28;20433;-66
2023/03/30 10:12:48;;;;;;;0.43;0.43;;;;;;;;;;5090842;28;20433;-66
2023/03/30 10:15:17;;;;;;;0.57;0.40;;;;;;;;;;5089329;28;20426;-66
2023/03/30 10:17:47;;;;;;;1.00;0.57;;;;;;;;;;5090300;28;20422;-67
2023/03/30 10:20:17;;;;;;;0.22;0.22;;;;;;;;;;5090616;28;20425;-66
2023/03/30 10:22:51;;;;;;;0.20;0.20;;;;;;;;;;5090473;28;20456;-66
2023/03/30 10:25:22;;;;;;;1.02;0.70;;;;;;;;;;5109896;28;20423;-66
2023/03/30 10:27:52;;;;;;;1.10;0.40;;;;;;;;;;5103421;28;20487;-67
2023/03/30 10:30:23;;;;;;;1.05;0.45;;;;;;;;;;5090549;28;20426;-66
2023/03/30 10:32:51;;;;;;;0.63;0.50;;;;;;;;;;5089606;28;20518;-67
2023/03/30 10:35:25;;;;;;;0.40;0.40;;;;;;;;;;5089593;28;20808;-66
2023/03/30 10:37:54;;;;;;;0.40;0.40;;;;;;;;;;5101692;28;20949;-66
2023/03/30 10:40:25;;;;;;;0.30;0.30;;;;;;;;;;5110681;28;20424;-66
2023/03/30 10:43:12;;;;;;;3.25;0.60;;;;;;;;;;5110580;28;20432;-66
2023/03/30 10:45:41;;;;;;;0.30;0.30;;;;;;;;;;5089051;28;20422;-66
2023/03/30 10:48:15;;;;;;;1.10;0.60;;;;;;;;;;5090153;28;20437;-67
2023/03/30 10:51:06;;;;;;;0.93;0.33;;;;;;;;;;5088255;28;20524;-67
2023/03/30 10:53:43;;;;;;;1.00;0.52;;;;;;;;;;5078748;28;20425;-66
2023/03/30 10:56:16;;;;;;;1.70;0.50;;;;;;;;;;5089727;28;20425;-66
2023/03/30 10:58:53;;;;;;;0.50;0.50;;;;;;;;;;5089306;28;20968;-67
2023/03/30 11:01:23;;;;;;;0.63;0.63;;;;;;;;;;5088974;28;20422;-66
2023/03/30 11:03:52;;;;;;;4.22;0.82;;;;;;;;;;5089408;28;20433;-66
2023/03/30 11:06:29;;;;;;;0.98;0.52;;;;;;;;;;5089039;28;20417;-66
2023/03/30 11:09:00;;;;;;;0.90;0.45;;;;;;;;;;5089859;28;20454;-66
2023/03/30 11:11:39;;;;;;;0.80;0.60;;;;;;;;;;5088979;28;20437;-67
2023/03/30 11:14:26;;;;;;;0.98;0.70;;;;;;;;;;5089208;28;20800;-67
2023/03/30 11:17:07;;;;;;;1.50;0.60;;;;;;;;;;5089382;28;20421;-66
2023/03/30 11:19:37;;;;;;;2.53;0.50;;;;;;;;;;5093559;28;20429;-67
2023/03/30 11:22:27;;;;;;;0.75;0.65;;;;;;;;;;5094151;28;20434;-66
2023/03/30 11:24:57;;;;;;;0.70;0.70;;;;;;;;;;5092652;28;20430;-66
2023/03/30 11:27:34;;;;;;;0.52;0.40;;;;;;;;;;5093880;28;20432;-67
2023/03/30 11:30:15;;;;;;;0.40;0.40;;;;;;;;;;5094019;28;20430;-66
2023/03/30 11:33:01;;;;;;;0.70;0.37;;;;;;;;;;5093752;28;20425;-67
2023/03/30 11:35:38;;;;;;;0.73;0.50;;;;;;;;;;5096329;28;20420;-67
2023/03/30 11:38:24;;;;;;;0.40;0.40;;;;;;;;;;5092703;28;20426;-66
2023/03/30 11:40:58;;;;;;;0.30;0.30;;;;;;;;;;5093471;28;20426;-66
2023/03/30 11:43:27;;;;;;;1.10;0.63;;;;;;;;;;5091994;28;20908;-67
2023/03/30 11:45:57;;;;;;;0.35;0.35;;;;;;;;;;5092965;28;20429;-66
2023/03/30 11:48:44;;;;;;;0.90;0.40;;;;;;;;;;5092385;28;20429;-66
2023/03/30 11:51:26;;;;;;;0.68;0.57;;;;;;;;;;5093511;28;20437;-66
2023/03/30 11:54:15;;;;;;;0.20;0.20;;;;;;;;;;5092804;28;20430;-66
2023/03/30 11:56:57;;;;;;;0.75;0.20;;;;;;;;;;5093265;28;20935;-67
2023/03/30 11:59:40;;;;;;;3.42;0.77;;;;;;;;;;5093148;28;20920;-67
2023/03/30 12:02:15;;;;;;;0.40;0.40;;;;;;;;;;5093231;28;20422;-67
2023/03/30 12:04:49;;;;;;;0.30;0.30;;;;;;;;;;5095593;28;20422;-66
2023/03/30 12:07:25;;;;;;;0.40;0.40;;;;;;;;;;5113483;28;20476;-66
2023/03/30 12:09:54;;;;;;;0.40;0.40;;;;;;;;;;5112876;28;20444;-67
2023/03/30 12:12:40;;;;;;;3.13;0.63;;;;;;;;;;5112057;28;20420;-66
2023/03/30 12:15:10;;;;;;;1.95;0.40;;;;;;;;;;5112544;28;20498;-67
2023/03/30 12:17:41;;;;;;;0.90;0.40;;;;;;;;;;5113423;28;20507;-67
2023/03/30 12:20:14;;;;;;;2.00;0.50;;;;;;;;;;5110827;27;20424;-67
2023/03/30 12:23:02;;;;;;;0.30;0.30;;;;;;;;;;5113059;28;20478;-67
2023/03/30 12:25:37;;;;;;;1.10;0.40;;;;;;;;;;5112348;28;20430;-65
2023/03/30 12:28:12;;;;;;;0.68;0.38;;;;;;;;;;5113368;28;20437;-65
2023/03/30 12:30:43;;;;;;;0.45;0.35;;;;;;;;;;5112544;28;20432;-65
2023/03/30 12:33:17;;;;;;;0.30;0.30;;;;;;;;;;5112197;28;20486;-66
2023/03/30 12:35:45;;;;;;;0.20;0.20;;;;;;;;;;5094129;28;20446;-66
2023/03/30 12:38:16;;;;;;;0.50;0.35;;;;;;;;;;5091353;28;20434;-65
2023/03/30 12:40:53;;;;;;;0.25;0.22;;;;;;;;;;5092334;28;20422;-65
2023/03/30 12:43:41;;;;;;;0.30;0.20;;;;;;;;;;5092482;28;20449;-65
2023/03/30 12:46:18;;;;;;;0.70;0.33;;;;;;;;;;5087490;28;20896;-65
2023/03/30 12:49:07;;;;;;;1.90;0.30;;;;;;;;;;5092191;28;20884;-66
2023/03/30 12:51:53;;;;;;;0.20;0.20;;;;;;;;;;5091727;28;20441;-65
2023/03/30 12:54:34;;;;;;;0.20;0.20;;;;;;;;;;5091786;28;20457;-65
2023/03/30 12:57:07;;;;;;;0.30;0.30;;;;;;;;;;5090026;28;20459;-65
2023/03/30 12:59:44;;;;;;;2.23;0.57;;;;;;;;;;5092266;28;20426;-65
2023/03/30 13:02:20;;;;;;;0.80;0.40;;;;;;;;;;5091764;28;20421;-67
2023/03/30 13:04:47;;;;;;;0.20;0.20;;;13.80;99.90;;;;;;5091578;28;20430;-67
2023/03/30 13:07:17;;;;;;;0.40;0.40;;;;;;;;;;5091618;28;20425;-67
2023/03/30 13:09:56;;;;;;;0.30;0.30;;;;;;;;;;5092128;28;20440;-67
2023/03/30 13:12:26;;;;;;;0.20;0.20;;;;;;;;;;5091605;28;20468;-66
2023/03/30 13:14:59;;;;;;;0.20;0.20;;;;;;;;;;5091391;28;20426;-66
2023/03/30 13:17:26;;;;;;;1.97;0.47;;;;;;;;;;5091843;28;20425;-66
2023/03/30 13:20:28;;;;;;;1.00;0.22;;;;;;;;;;5090427;28;20825;-65
2023/03/30 13:23:06;;;;;;;0.30;0.30;;;;;;;;;;5090919;28;20429;-66
2023/03/30 13:25:38;;;;;;;0.80;0.50;;;;;;;;;;5090032;28;20421;-63
2023/03/30 13:28:23;;;;;;;2.90;0.30;;;;;;;;;;5090749;28;20428;-63
2023/03/30 13:30:53;;;;;;;0.13;0.13;;;;;;;;;;5091591;28;20426;-64
2023/03/30 13:33:21;;;;;;;0.20;0.20;;;;;;;;;;5094552;28;20499;-65
2023/03/30 13:35:51;;;;;;;0.43;0.43;;;;;;;;;;5111152;27;20433;-65
2023/03/30 13:38:39;;;;;;;0.10;0.10;;;;;;;;;;5111449;28;20428;-65
2023/03/30 13:41:14;;;;;;;0.30;0.30;;;;;;;;;;5111215;28;20547;-65
2023/03/30 13:43:50;;;;;;;0.80;0.50;;;;;;;;;;5111789;28;20503;-65
2023/03/30 13:46:35;;;;;;;1.10;0.30;;;;;;;;;;5111285;28;20502;-63
2023/03/30 13:49:14;;;;;;;0.20;0.20;;;;;;;;;;5111217;28;20505;-65
2023/03/30 13:51:43;;;;;;;0.10;0.10;;;;;;;;;;5106021;28;20476;-65
2023/03/30 13:54:15;;;;;;;0.30;0.30;;;;;;;;;;5089887;28;20501;-65
2023/03/30 13:56:46;;;;;;;0.40;0.40;;;;;;;;;;5090706;28;20778;-65
2023/03/30 13:59:18;;;;;;;0.25;0.25;;;;;;;;;;5097906;28;20949;-65
2023/03/30 14:01:48;;;;;;;0.30;0.30;;;;;;;;;;5111220;28;20427;-65
2023/03/30 14:04:15;;;;;;;0.20;0.20;;;15.00;99.90;;;;;;5110821;28;20477;-65
2023/03/30 14:06:44;;;;;;;0.10;0.10;;;;;;;;;;5111001;28;20770;-64
2023/03/30 14:09:13;;;;;;;0.20;0.20;;;;;;;;;;5111082;28;20993;-63
2023/03/30 14:11:43;;;;;;;0.20;0.20;;;;;;;;;;5106428;28;20512;-64
2023/03/30 14:14:28;;;;;;;0.75;0.30;;;;;;;;;;5090068;28;20521;-66
2023/03/30 14:17:00;;;;;;;0.20;0.20;;;;;;;;;;5090525;28;20512;-65
2023/03/30 14:19:34;;;;;;;0.30;0.30;;;;;;;;;;5089586;28;20798;-68
2023/03/30 14:22:10;;;;;;;0.50;0.30;;;;;;;;;;5090569;28;20426;-66
2023/03/30 14:24:37;;;;;;;0.20;0.20;;;;;;;;;;5090122;28;20421;-65
2023/03/30 14:27:12;;;;;;;1.90;0.20;;;;;;;;;;5090514;28;20426;-65
2023/03/30 14:29:45;;;;;;;0.10;0.10;;;;;;;;;;5089878;28;20932;-65
2023/03/30 14:32:18;;;;;;;0.10;0.10;;;;;;;;;;5101796;28;20435;-65
2023/03/30 14:34:46;;;;;;;0.20;0.20;;;;;;;;;;5109915;28;20435;-65
2023/03/30 14:37:13;;;;;;;0.17;0.17;;;;;;;;;;5110727;28;20432;-65
2023/03/30 14:39:45;;;;;;;0.70;0.38;;;;;;;;;;5110364;28;20485;-65
2023/03/30 14:42:15;;;;;;;0.50;0.30;;;;;;;;;;5110624;28;20429;-66
2023/03/30 14:44:45;;;;;;;0.30;0.30;;;;;;;;;;5107859;28;20420;-66
2023/03/30 14:47:13;;;;;;;0.40;0.20;;;;;;;;;;5093630;28;20422;-65
2023/03/30 14:49:46;;;;;;;0.38;0.38;;;;;;;;;;5089211;28;20543;-65
2023/03/30 14:52:18;;;;;;;0.20;0.20;;;;;;;;;;5089424;28;20430;-65
2023/03/30 14:54:49;;;;;;;0.25;0.25;;;;;;;;;;5089201;28;20457;-66
2023/03/30 14:57:37;;;;;;;0.10;0.10;;;;;;;;;;5089046;28;20430;-65
2023/03/30 15:03:00;;;;;;;4.23;0.37;;;15.10;99.90;;;;;;5091707;28;20456;-65
2023/03/30 15:05:31;;;;;;;0.20;0.20;;;;;;;;;;5090445;28;20928;-65
2023/03/30 15:07:59;;;;;;;0.80;0.60;;;;;;;;;;5107003;28;20420;-65
2023/03/30 15:10:29;;;;;;;0.15;0.15;;;;;;;;;;5107049;28;20872;-66
2023/03/30 15:12:57;;;;;;;0.30;0.30;;;;;;;;;;5105798;28;20424;-66
2023/03/30 15:15:26;;;;;;;0.15;0.15;;;;;;;;;;5107044;28;20498;-66